createdAt,value
2023-03-31T00:01:04.687Z,97264.88
2023-03-31T00:03:34.265Z,97272.34
2023-03-31T00:06:02.222Z,97279.50
2023-03-31T00:08:35.724Z,97277.56
2023-03-31T00:11:09.824Z,97272.09
2023-03-31T00:13:37.220Z,97271.13
2023-03-31T00:16:09.494Z,97274.28
2023-03-31T00:18:38.217Z,97277.56
2023-03-31T00:21:24.631Z,97275.13
2023-03-31T00:23:59.286Z,97275.84
2023-03-31T00:26:28.218Z,97268.38
2023-03-31T00:28:56.726Z,97266.84
2023-03-31T00:31:25.171Z,97267.53
2023-03-31T00:33:52.621Z,97266.44
2023-03-31T00:36:27.580Z,97268.78
2023-03-31T00:39:02.698Z,97275.16
2023-03-31T00:41:30.654Z,97270.94
2023-03-31T00:44:24.897Z,97260.88
2023-03-31T00:47:10.671Z,97269.66
2023-03-31T00:49:53.785Z,97269.50
2023-03-31T00:52:35.961Z,97260.00
2023-03-31T00:55:12.443Z,97270.06
2023-03-31T00:57:44.740Z,97262.81
2023-03-31T01:00:18.598Z,97266.91
2023-03-31T01:02:58.893Z,97269.50
2023-03-31T01:05:39.847Z,97270.25
2023-03-31T01:08:08.074Z,97264.53
2023-03-31T01:10:42.017Z,97268.56
2023-03-31T01:13:13.694Z,97262.25
2023-03-31T01:15:42.804Z,97257.19
2023-03-31T01:18:13.439Z,97252.69
2023-03-31T01:20:53.237Z,97249.84
2023-03-31T01:23:29.720Z,97246.84
2023-03-31T01:26:38.947Z,97243.66
2023-03-31T01:29:29.038Z,97235.94
2023-03-31T01:32:37.868Z,97240.47
2023-03-31T01:35:40.984Z,97243.19
2023-03-31T01:38:29.020Z,97252.91
2023-03-31T01:41:33.747Z,97247.03
2023-03-31T01:44:27.587Z,97251.75
2023-03-31T01:47:06.557Z,97249.75
2023-03-31T01:49:43.788Z,97251.31
2023-03-31T01:52:29.370Z,97246.94
2023-03-31T01:55:14.596Z,97263.75
2023-03-31T01:58:07.037Z,97254.63
2023-03-31T02:00:52.111Z,97253.19
2023-03-31T02:03:33.462Z,97253.69
2023-03-31T02:06:13.394Z,97243.16
2023-03-31T02:09:02.398Z,97241.25
2023-03-31T02:11:34.208Z,97243.75
2023-03-31T02:14:06.040Z,97239.09
2023-03-31T02:16:42.023Z,97248.59
2023-03-31T02:19:14.095Z,97242.28
2023-03-31T02:21:41.974Z,97246.06
2023-03-31T02:24:14.677Z,97250.81
2023-03-31T02:26:58.127Z,97249.63
2023-03-31T02:29:25.777Z,97243.00
2023-03-31T02:31:55.988Z,97237.56
2023-03-31T02:34:24.194Z,97235.78
2023-03-31T02:36:52.489Z,97231.59
2023-03-31T02:39:28.234Z,97233.16
2023-03-31T02:41:55.772Z,97228.16
2023-03-31T02:44:24.563Z,97226.06
2023-03-31T02:46:52.799Z,97225.47
2023-03-31T02:49:21.664Z,97232.91
2023-03-31T02:52:09.990Z,97229.50
2023-03-31T02:54:59.748Z,97220.59
2023-03-31T02:58:18.410Z,97224.28
2023-03-31T03:01:24.020Z,97233.41
2023-03-31T03:04:09.628Z,97229.50
2023-03-31T03:06:57.815Z,97222.53
2023-03-31T03:10:18.515Z,97225.38
2023-03-31T03:14:01.382Z,97227.94
2023-03-31T03:16:39.587Z,97228.59
2023-03-31T03:19:08.027Z,97222.38
2023-03-31T03:21:36.071Z,97227.84
2023-03-31T03:24:03.681Z,97226.69
2023-03-31T03:26:35.259Z,97223.16
2023-03-31T03:29:02.944Z,97221.25
2023-03-31T03:31:30.889Z,97219.22
2023-03-31T03:33:58.417Z,97216.16
2023-03-31T03:36:25.932Z,97216.78
2023-03-31T03:38:53.495Z,97215.22
2023-03-31T03:41:20.908Z,97208.00
2023-03-31T03:43:48.470Z,97204.81
2023-03-31T03:46:15.880Z,97205.88
2023-03-31T03:48:43.410Z,97206.22
2023-03-31T03:51:10.804Z,97201.84
2023-03-31T03:53:38.383Z,97194.03
2023-03-31T03:56:06.197Z,97203.88
2023-03-31T03:58:33.903Z,97198.66
2023-03-31T04:01:01.650Z,97198.88
2023-03-31T04:03:29.283Z,97192.84
2023-03-31T04:05:56.740Z,97196.88
2023-03-31T04:08:24.899Z,97194.97
2023-03-31T04:10:52.217Z,97187.41
2023-03-31T04:13:20.984Z,97188.56
2023-03-31T04:15:48.293Z,97193.06
2023-03-31T04:18:23.275Z,97191.31
2023-03-31T04:21:04.403Z,97186.69
2023-03-31T04:23:38.559Z,97179.13
2023-03-31T04:26:09.124Z,97187.28
2023-03-31T04:28:38.656Z,97175.81
2023-03-31T04:31:06.377Z,97177.22
2023-03-31T04:33:34.313Z,97167.19
2023-03-31T04:36:07.614Z,97174.03
2023-03-31T04:38:35.416Z,97174.97
2023-03-31T04:41:02.694Z,97163.25
2023-03-31T04:43:30.392Z,97163.97
2023-03-31T04:45:57.695Z,97168.69
2023-03-31T04:48:25.326Z,97166.09
2023-03-31T04:50:52.570Z,97162.78
2023-03-31T04:53:20.161Z,97164.31
2023-03-31T04:55:49.164Z,97159.47
2023-03-31T04:58:16.909Z,97150.97
2023-03-31T05:00:44.635Z,97153.66
2023-03-31T05:03:12.237Z,97152.38
2023-03-31T05:05:39.956Z,97148.81
2023-03-31T05:08:07.749Z,97149.75
2023-03-31T05:10:35.109Z,97149.41
2023-03-31T05:13:03.128Z,97147.03
2023-03-31T05:15:30.546Z,97133.19
2023-03-31T05:17:59.178Z,97134.00
2023-03-31T05:20:26.450Z,97140.66
2023-03-31T05:22:54.002Z,97139.34
2023-03-31T05:25:22.597Z,97144.53
2023-03-31T05:27:51.117Z,97140.16
2023-03-31T05:30:18.815Z,97134.22
2023-03-31T05:32:46.422Z,97120.84
2023-03-31T05:35:13.736Z,97127.03
2023-03-31T05:37:43.647Z,97123.69
2023-03-31T05:40:11.673Z,97124.53
2023-03-31T05:42:39.582Z,97126.63
2023-03-31T05:45:09.229Z,97132.41
2023-03-31T05:47:37.305Z,97127.44
2023-03-31T05:50:08.045Z,97129.09
2023-03-31T05:52:36.582Z,97125.06
2023-03-31T05:55:04.833Z,97137.13
2023-03-31T05:57:32.605Z,97132.13
2023-03-31T06:00:00.038Z,97122.63
2023-03-31T06:02:27.809Z,97136.34
2023-03-31T06:04:55.181Z,97128.88
2023-03-31T06:07:25.111Z,97133.88
2023-03-31T06:09:52.634Z,97121.75
2023-03-31T06:12:20.628Z,97127.16
2023-03-31T06:14:47.994Z,97130.53
2023-03-31T06:17:15.588Z,97133.78
2023-03-31T06:19:42.837Z,97143.81
2023-03-31T06:22:10.379Z,97137.81
2023-03-31T06:24:37.732Z,97134.94
2023-03-31T06:27:07.219Z,97133.13
2023-03-31T06:29:34.868Z,97124.03
2023-03-31T06:32:02.569Z,97122.88
2023-03-31T06:34:30.198Z,97137.69
2023-03-31T06:36:57.857Z,97116.28
2023-03-31T06:39:27.653Z,97118.56
2023-03-31T06:41:55.815Z,97111.88
2023-03-31T06:44:24.657Z,97110.13
2023-03-31T06:46:52.310Z,97114.22
2023-03-31T06:49:19.799Z,97112.19
2023-03-31T06:51:47.422Z,97127.44
2023-03-31T06:54:14.882Z,97121.59
2023-03-31T06:56:42.502Z,97116.78
2023-03-31T06:59:09.882Z,97109.84
2023-03-31T07:01:39.246Z,97120.56
2023-03-31T07:04:06.619Z,97119.44
2023-03-31T07:06:35.574Z,97100.97
2023-03-31T07:09:04.589Z,97103.91
2023-03-31T07:11:32.292Z,97122.97
2023-03-31T07:13:59.816Z,97115.22
2023-03-31T07:16:27.457Z,97101.09
2023-03-31T07:18:59.634Z,97107.41
2023-03-31T07:21:27.260Z,97099.84
2023-03-31T07:23:54.544Z,97100.09
2023-03-31T07:26:22.665Z,97085.06
2023-03-31T07:28:50.464Z,97085.13
2023-03-31T07:31:18.693Z,97098.16
2023-03-31T07:33:46.054Z,97087.28
2023-03-31T07:36:14.537Z,97102.47
2023-03-31T07:38:46.876Z,97087.81
2023-03-31T07:41:20.352Z,97093.03
2023-03-31T07:43:48.755Z,97087.53
2023-03-31T07:46:22.258Z,97085.13
2023-03-31T07:48:50.732Z,97092.22
2023-03-31T07:51:22.462Z,97084.25
2023-03-31T07:53:52.457Z,97099.00
2023-03-31T07:56:25.509Z,97096.66
2023-03-31T07:58:55.446Z,97089.00
2023-03-31T08:01:26.280Z,97104.97
2023-03-31T08:03:55.798Z,97107.91
2023-03-31T08:06:26.626Z,97082.66
2023-03-31T08:08:54.063Z,97094.13
2023-03-31T08:11:21.698Z,97088.88
2023-03-31T08:13:49.084Z,97070.19
2023-03-31T08:16:16.961Z,97056.94
2023-03-31T08:18:44.520Z,97068.28
2023-03-31T08:21:12.358Z,97060.56
2023-03-31T08:23:39.584Z,97058.03
2023-03-31T08:26:22.019Z,97045.66
2023-03-31T08:28:49.488Z,97032.72
2023-03-31T08:31:19.765Z,97038.91
2023-03-31T08:33:47.937Z,97036.13
2023-03-31T08:36:15.746Z,97015.28
2023-03-31T08:38:48.051Z,97014.47
2023-03-31T08:41:28.169Z,96999.75
2023-03-31T08:43:58.911Z,97005.38
2023-03-31T08:46:31.265Z,97015.28
2023-03-31T08:49:01.301Z,97001.03
2023-03-31T08:51:42.138Z,97001.53
2023-03-31T08:54:38.596Z,97001.59
2023-03-31T08:57:17.791Z,96990.63
2023-03-31T08:59:46.250Z,96995.59
2023-03-31T09:02:36.039Z,96995.50
2023-03-31T09:05:46.111Z,96981.97
2023-03-31T09:08:39.164Z,96986.72
2023-03-31T09:11:34.747Z,96997.00
2023-03-31T09:14:34.103Z,96977.59
2023-03-31T09:17:27.628Z,96976.47
2023-03-31T09:20:08.882Z,96979.28
2023-03-31T09:22:48.175Z,96978.69
2023-03-31T09:25:32.264Z,96949.97
2023-03-31T09:28:03.615Z,96952.81
2023-03-31T09:30:36.825Z,96970.16
2023-03-31T09:33:10.119Z,96952.00
2023-03-31T09:35:38.424Z,96963.16
2023-03-31T09:38:06.460Z,96971.94
2023-03-31T09:40:35.042Z,96927.59
2023-03-31T09:43:08.196Z,96921.50
2023-03-31T09:45:36.249Z,96923.41
2023-03-31T09:48:23.653Z,96924.50
2023-03-31T09:50:58.887Z,96914.53
2023-03-31T09:53:43.379Z,96917.72
2023-03-31T09:56:14.443Z,96920.53
2023-03-31T09:58:44.686Z,96922.63
2023-03-31T10:01:16.057Z,96923.69
2023-03-31T10:03:55.600Z,96926.56
2023-03-31T10:06:26.008Z,96930.69
2023-03-31T10:09:01.437Z,96902.34
2023-03-31T10:11:29.998Z,96900.75
2023-03-31T10:14:04.252Z,96904.66
2023-03-31T10:16:35.375Z,96903.81
2023-03-31T10:19:29.361Z,96887.25
2023-03-31T10:22:01.272Z,96907.19
2023-03-31T10:24:45.086Z,96887.56
2023-03-31T10:27:31.797Z,96878.38
2023-03-31T10:30:09.601Z,96878.81
2023-03-31T10:32:43.538Z,96869.34
2023-03-31T10:35:30.330Z,96874.63
2023-03-31T10:38:06.039Z,96896.28
2023-03-31T10:40:36.660Z,96869.28
2023-03-31T10:43:10.071Z,96894.19
2023-03-31T10:45:44.679Z,96864.25
2023-03-31T10:48:31.587Z,96871.44
2023-03-31T10:51:26.145Z,96866.91
2023-03-31T10:54:05.212Z,96868.91
2023-03-31T10:56:47.882Z,96857.53
2023-03-31T10:59:37.706Z,96858.28
2023-03-31T11:02:22.786Z,96862.66
2023-03-31T11:05:22.550Z,96852.59
2023-03-31T11:08:27.379Z,96864.78
2023-03-31T11:11:46.865Z,96844.22
2023-03-31T11:14:38.491Z,96829.31
2023-03-31T11:18:09.410Z,96822.47
2023-03-31T11:21:32.499Z,96816.16
2023-03-31T11:24:09.187Z,96812.34
2023-03-31T11:26:53.728Z,96812.03
2023-03-31T11:29:42.712Z,96843.94
2023-03-31T11:32:56.783Z,96800.75
2023-03-31T11:35:38.876Z,96793.16
2023-03-31T11:38:47.541Z,96815.22
2023-03-31T11:41:34.335Z,96792.41
2023-03-31T11:44:09.636Z,96784.38
2023-03-31T11:47:17.325Z,96780.94
2023-03-31T11:49:53.585Z,96773.56
2023-03-31T11:52:40.816Z,96770.50
2023-03-31T11:55:21.649Z,96758.13
2023-03-31T11:58:17.133Z,96767.16
2023-03-31T12:01:01.253Z,96774.25
2023-03-31T12:03:53.066Z,96740.78
2023-03-31T12:06:28.135Z,96761.22
2023-03-31T12:09:21.641Z,96731.63
2023-03-31T12:12:22.799Z,96733.03
2023-03-31T12:15:00.385Z,96740.78
2023-03-31T12:17:29.599Z,96735.63
2023-03-31T12:20:10.804Z,96707.53
2023-03-31T12:22:47.158Z,96718.28
2023-03-31T12:25:23.105Z,96724.69
2023-03-31T12:27:51.657Z,96724.06
2023-03-31T12:30:34.672Z,96711.47
2023-03-31T12:33:39.445Z,96696.75
2023-03-31T12:36:50.032Z,96697.31
2023-03-31T12:39:18.202Z,96692.34
2023-03-31T12:42:07.143Z,96670.34
2023-03-31T12:45:00.419Z,96680.53
2023-03-31T12:47:56.058Z,96703.06
2023-03-31T12:50:50.216Z,96692.84
2023-03-31T12:54:01.277Z,96674.31
2023-03-31T12:56:28.643Z,96654.72
2023-03-31T12:59:29.390Z,96670.03
2023-03-31T13:02:17.680Z,96670.88
2023-03-31T13:04:45.728Z,96693.06
2023-03-31T13:07:38.785Z,96664.16
2023-03-31T13:10:18.095Z,96663.19
2023-03-31T13:13:16.325Z,96629.81
2023-03-31T13:16:02.810Z,96637.31
2023-03-31T13:18:34.315Z,96676.25
2023-03-31T13:21:05.898Z,96642.94
2023-03-31T13:23:37.384Z,96656.50
2023-03-31T13:26:06.015Z,96684.97
2023-03-31T13:28:44.859Z,96657.06
2023-03-31T13:31:15.269Z,96642.72
2023-03-31T13:33:58.782Z,96633.19
2023-03-31T13:36:49.506Z,96641.22
2023-03-31T13:40:08.390Z,96617.31
2023-03-31T13:43:09.265Z,96626.69
2023-03-31T13:46:03.394Z,96625.69
2023-03-31T13:48:45.775Z,96631.47
2023-03-31T13:51:31.732Z,96604.88
2023-03-31T13:54:49.561Z,96630.22
2023-03-31T13:58:05.442Z,96608.97
2023-03-31T14:01:29.481Z,96610.34
2023-03-31T14:05:05.844Z,96629.97
2023-03-31T14:07:49.606Z,96607.84
2023-03-31T14:10:33.030Z,96603.91
2023-03-31T14:13:24.373Z,96609.34
2023-03-31T14:16:00.309Z,96597.88
2023-03-31T14:18:37.040Z,96583.94
2023-03-31T14:22:06.130Z,96580.59
2023-03-31T14:24:55.546Z,96587.22
2023-03-31T14:28:08.783Z,96594.97
2023-03-31T14:31:21.670Z,96575.47
2023-03-31T14:34:24.900Z,96579.56
2023-03-31T14:37:05.229Z,96575.13
2023-03-31T14:39:41.482Z,96561.97
2023-03-31T14:42:25.457Z,96552.63
2023-03-31T14:44:58.369Z,96547.56
2023-03-31T14:47:31.226Z,96534.75
2023-03-31T14:50:16.790Z,96528.97
2023-03-31T14:52:52.788Z,96518.31
2023-03-31T14:55:28.611Z,96504.25
2023-03-31T14:58:03.625Z,96509.94
2023-03-31T15:00:39.020Z,96507.34
2023-03-31T15:03:15.536Z,96508.75
2023-03-31T15:05:48.841Z,96497.75
2023-03-31T15:08:23.632Z,96505.50
2023-03-31T15:11:02.450Z,96496.13
2023-03-31T15:14:03.661Z,96497.31
2023-03-31T15:16:45.117Z,96486.53
2023-03-31T15:19:31.135Z,96477.50
2023-03-31T15:22:21.415Z,96471.44
2023-03-31T15:24:49.367Z,96470.28
2023-03-31T15:27:35.796Z,96452.41
2023-03-31T15:30:14.606Z,96450.03
2023-03-31T15:32:42.253Z,96443.38
2023-03-31T15:35:40.956Z,96449.78
2023-03-31T15:38:15.515Z,96442.25
2023-03-31T15:40:44.356Z,96433.72
2023-03-31T15:45:58.171Z,96420.38
2023-03-31T15:48:53.165Z,96418.72
2023-03-31T15:51:47.030Z,96409.97
2023-03-31T15:54:43.885Z,96391.91
2023-03-31T15:57:19.916Z,96389.69
2023-03-31T15:59:56.918Z,96387.59
2023-03-31T16:02:47.110Z,96397.13
2023-03-31T16:05:53.612Z,96389.94
2023-03-31T16:09:01.565Z,96383.56
2023-03-31T16:11:44.317Z,96394.94
2023-03-31T16:14:22.022Z,96388.53
2023-03-31T16:17:02.275Z,96385.56
2023-03-31T16:19:40.390Z,96381.00
2023-03-31T16:22:16.622Z,96374.16
2023-03-31T16:24:44.523Z,96368.94
2023-03-31T16:27:12.127Z,96367.84
2023-03-31T16:29:40.411Z,96373.88
2023-03-31T16:32:11.387Z,96369.63
2023-03-31T16:34:59.405Z,96366.03
2023-03-31T16:37:27.789Z,96366.41
2023-03-31T16:39:57.687Z,96370.88
2023-03-31T16:42:26.215Z,96366.44
2023-03-31T16:45:09.422Z,96355.13
2023-03-31T16:47:43.617Z,96360.72
2023-03-31T16:50:15.316Z,96354.34
2023-03-31T16:52:42.960Z,96352.34
2023-03-31T16:55:10.816Z,96343.50
2023-03-31T16:57:38.185Z,96345.47
2023-03-31T17:00:06.819Z,96340.22
2023-03-31T17:02:34.300Z,96330.28
2023-03-31T17:05:12.833Z,96317.47
2023-03-31T17:07:41.006Z,96325.56
2023-03-31T17:10:09.878Z,96318.22
2023-03-31T17:12:37.228Z,96312.00
2023-03-31T17:15:05.602Z,96310.53
2023-03-31T17:17:33.245Z,96315.16
2023-03-31T17:20:01.272Z,96309.94
2023-03-31T17:22:28.721Z,96313.06
2023-03-31T17:24:58.623Z,96313.41
2023-03-31T17:27:28.296Z,96308.97
2023-03-31T17:29:56.589Z,96315.56
2023-03-31T17:32:24.199Z,96310.47
2023-03-31T17:34:52.486Z,96314.06
2023-03-31T17:37:20.673Z,96319.47
2023-03-31T17:39:48.451Z,96322.75
2023-03-31T17:42:16.804Z,96339.63
2023-03-31T17:44:46.420Z,96355.66
2023-03-31T17:47:15.628Z,96340.81
2023-03-31T17:49:43.734Z,96341.81
2023-03-31T17:52:11.193Z,96364.25
2023-03-31T17:54:38.881Z,96380.97
2023-03-31T17:57:06.409Z,96382.41
2023-03-31T17:59:34.088Z,96352.09
2023-03-31T18:02:01.646Z,96345.56
2023-03-31T18:04:29.304Z,96340.78
2023-03-31T18:06:56.578Z,96342.78
2023-03-31T18:09:25.133Z,96335.91
2023-03-31T18:11:53.842Z,96335.75
2023-03-31T18:14:21.506Z,96324.63
2023-03-31T18:16:48.862Z,96320.84
2023-03-31T18:19:16.833Z,96335.25
2023-03-31T18:21:44.193Z,96327.72
2023-03-31T18:24:13.759Z,96319.84
2023-03-31T18:26:41.776Z,96328.69
2023-03-31T18:29:11.223Z,96329.81
2023-03-31T18:31:38.863Z,96327.69
2023-03-31T18:34:06.894Z,96334.41
2023-03-31T18:36:34.595Z,96327.34
2023-03-31T18:39:04.268Z,96324.09
2023-03-31T18:41:31.595Z,96328.69
2023-03-31T18:44:00.494Z,96324.75
2023-03-31T18:46:27.908Z,96310.81
2023-03-31T18:48:55.746Z,96307.41
2023-03-31T18:51:23.086Z,96308.41
2023-03-31T18:53:50.736Z,96305.59
2023-03-31T18:56:18.092Z,96311.69
2023-03-31T18:58:45.949Z,96302.47
2023-03-31T19:01:13.301Z,96299.84
2023-03-31T19:03:42.527Z,96292.66
2023-03-31T19:06:11.351Z,96299.22
2023-03-31T19:08:40.121Z,96301.19
2023-03-31T19:11:15.794Z,96293.50
2023-03-31T19:13:44.091Z,96292.34
2023-03-31T19:16:13.522Z,96284.81
2023-03-31T19:18:42.387Z,96289.06
2023-03-31T19:21:10.547Z,96280.88
2023-03-31T19:23:38.379Z,96281.69
2023-03-31T19:26:06.116Z,96273.69
2023-03-31T19:28:33.931Z,96275.78
2023-03-31T19:31:04.272Z,96275.31
2023-03-31T19:33:31.934Z,96270.56
2023-03-31T19:35:59.408Z,96277.09
2023-03-31T19:38:31.995Z,96275.94
2023-03-31T19:41:00.316Z,96277.75
2023-03-31T19:43:29.552Z,96280.88
2023-03-31T19:45:59.938Z,96282.16
2023-03-31T19:48:33.675Z,96280.72
2023-03-31T19:51:09.019Z,96273.50
2023-03-31T19:53:40.875Z,96278.56
2023-03-31T19:56:12.830Z,96273.00
2023-03-31T19:58:41.456Z,96277.56
2023-03-31T20:01:24.872Z,96274.50
2023-03-31T20:03:53.844Z,96271.50
2023-03-31T20:06:29.691Z,96283.44
2023-03-31T20:09:01.509Z,96272.81
2023-03-31T20:11:32.216Z,96284.75
2023-03-31T20:14:00.492Z,96286.91
2023-03-31T20:16:30.852Z,96289.69
2023-03-31T20:19:04.409Z,96291.31
2023-03-31T20:21:37.863Z,96279.84
2023-03-31T20:24:06.788Z,96279.69
2023-03-31T20:26:35.511Z,96284.28
2023-03-31T20:29:04.223Z,96284.09
2023-03-31T20:31:38.667Z,96281.31
2023-03-31T20:34:12.546Z,96297.53
2023-03-31T20:36:42.343Z,96290.19
2023-03-31T20:39:13.205Z,96304.22
2023-03-31T20:41:41.008Z,96292.94
2023-03-31T20:44:13.408Z,96287.72
2023-03-31T20:46:44.196Z,96300.16
2023-03-31T20:49:12.332Z,96305.22
2023-03-31T20:51:40.294Z,96293.28
2023-03-31T20:54:13.433Z,96299.31
2023-03-31T20:56:41.546Z,96296.97
2023-03-31T20:59:14.997Z,96310.56
2023-03-31T21:01:42.913Z,96306.13
2023-03-31T21:04:12.091Z,96314.13
2023-03-31T21:06:43.736Z,96324.41
2023-03-31T21:09:13.098Z,96328.63
2023-03-31T21:11:40.903Z,96315.91
2023-03-31T21:14:13.936Z,96318.31
2023-03-31T21:16:41.709Z,96323.84
2023-03-31T21:19:09.558Z,96315.84
2023-03-31T21:21:37.901Z,96313.84
2023-03-31T21:24:05.913Z,96309.75
2023-03-31T21:26:33.289Z,96308.09
2023-03-31T21:29:00.882Z,96316.13
2023-03-31T21:31:28.257Z,96311.69
2023-03-31T21:33:57.797Z,96319.66
2023-03-31T21:36:26.861Z,96320.25
2023-03-31T21:38:56.748Z,96313.84
2023-03-31T21:41:28.395Z,96317.59
2023-03-31T21:43:57.392Z,96319.13
2023-03-31T21:46:28.986Z,96332.06
2023-03-31T21:48:57.619Z,96342.00
2023-03-31T21:51:26.088Z,96319.91
2023-03-31T21:53:55.811Z,96328.28
2023-03-31T21:56:25.263Z,96322.63
2023-03-31T21:58:53.367Z,96324.06
2023-03-31T22:01:22.525Z,96331.25
2023-03-31T22:03:51.007Z,96331.84
2023-03-31T22:06:18.557Z,96329.22
2023-03-31T22:08:46.163Z,96323.69
2023-03-31T22:11:14.204Z,96325.13
2023-03-31T22:13:41.876Z,96327.88
2023-03-31T22:16:18.919Z,96323.34
2023-03-31T22:18:47.736Z,96324.69
2023-03-31T22:21:21.680Z,96326.78
2023-03-31T22:23:53.377Z,96323.66
2023-03-31T22:26:22.448Z,96328.34
2023-03-31T22:28:50.121Z,96345.81
2023-03-31T22:31:17.873Z,96360.19
2023-03-31T22:33:45.941Z,96350.22
2023-03-31T22:36:13.745Z,96349.56
2023-03-31T22:38:42.020Z,96348.72
2023-03-31T22:41:09.327Z,96347.13
2023-03-31T22:43:36.917Z,96338.50
2023-03-31T22:46:07.073Z,96349.56
2023-03-31T22:48:35.013Z,96347.69
2023-03-31T22:51:06.420Z,96356.25
2023-03-31T22:53:34.494Z,96349.66
2023-03-31T22:56:12.118Z,96340.50
2023-03-31T22:58:39.735Z,96352.16
2023-03-31T23:01:09.873Z,96355.94
2023-03-31T23:03:37.848Z,96346.78
2023-03-31T23:06:06.317Z,96349.63
2023-03-31T23:08:35.932Z,96334.97
2023-03-31T23:11:06.293Z,96333.00
2023-03-31T23:13:35.080Z,96337.25
2023-03-31T23:16:05.465Z,96332.50
2023-03-31T23:18:34.054Z,96337.94
2023-03-31T23:21:06.154Z,96340.56
2023-03-31T23:23:33.935Z,96337.00
2023-03-31T23:26:03.284Z,96333.25
2023-03-31T23:28:31.756Z,96340.72
2023-03-31T23:30:59.317Z,96326.31
2023-03-31T23:33:29.151Z,96330.50
2023-03-31T23:36:05.419Z,96319.47
2023-03-31T23:38:34.214Z,96329.38
2023-03-31T23:41:02.460Z,96318.88
2023-03-31T23:43:30.337Z,96317.69
2023-03-31T23:45:57.659Z,96316.03
2023-03-31T23:48:25.496Z,96325.66
2023-03-31T23:50:52.778Z,96320.44
2023-03-31T23:53:20.363Z,96318.81
2023-03-31T23:56:06.705Z,96313.19
2023-03-31T23:58:34.956Z,96311.78
